Time;durP1;ratioP1;P1;durP2;ratioP2;P2;SDS_P1;SDS_P2;PMS_P1;PMS_P2;Temp;Humidity;BMP_temperature;BMP_pressure;BME280_temperature;BME280_humidity;BME280_pressure;Samples;Min_cycle;Max_cycle;Signal;HPM_P1;HPM_P2
2023/08/25 00:01:47;;;;;;;4.35;2.42;;;19.20;99.90;;;;;;4983738;28;20577;-79
2023/08/25 00:04:13;;;;;;;3.80;2.45;;;19.20;99.90;;;;;;5001101;28;20041;-80
2023/08/25 00:06:38;;;;;;;5.05;2.42;;;19.30;99.90;;;;;;4977127;28;20038;-80
2023/08/25 00:09:04;;;;;;;7.43;3.00;;;19.30;99.90;;;;;;4985946;28;20116;-79
2023/08/25 00:11:29;;;;;;;6.82;2.75;;;19.20;99.90;;;;;;4987299;28;20049;-79
2023/08/25 00:13:55;;;;;;;5.93;2.50;;;19.20;99.90;;;;;;4981083;28;20053;-80
2023/08/25 00:16:21;;;;;;;2.88;2.03;;;19.20;99.90;;;;;;4997656;28;20478;-79
2023/08/25 00:18:47;;;;;;;6.85;2.92;;;19.30;99.90;;;;;;4998648;28;20470;-80
2023/08/25 00:21:12;;;;;;;3.80;2.50;;;19.20;99.90;;;;;;4999246;28;20112;-80
2023/08/25 00:23:38;;;;;;;5.50;2.58;;;19.10;99.90;;;;;;4990286;28;20117;-80
2023/08/25 00:26:03;;;;;;;6.47;2.72;;;19.10;99.90;;;;;;4985170;28;20571;-79
2023/08/25 00:28:29;;;;;;;5.53;2.60;;;19.10;99.90;;;;;;4982996;28;20037;-79
2023/08/25 00:30:55;;;;;;;5.53;2.95;;;19.00;99.90;;;;;;4983807;28;20072;-80
2023/08/25 00:33:20;;;;;;;6.85;2.78;;;19.00;99.90;;;;;;4985670;28;20092;-80
2023/08/25 00:35:46;;;;;;;7.50;3.13;;;19.00;99.90;;;;;;4995302;28;20046;-79
2023/08/25 00:38:11;;;;;;;5.28;2.05;;;18.90;99.90;;;;;;4995909;28;20111;-79
2023/08/25 00:40:37;;;;;;;6.18;2.45;;;19.00;99.90;;;;;;4980946;28;20512;-79
2023/08/25 00:43:03;;;;;;;7.82;2.63;;;19.10;99.90;;;;;;4983356;28;20470;-79
2023/08/25 00:45:30;;;;;;;5.00;2.63;;;19.00;99.90;;;;;;4985710;28;20032;-80
2023/08/25 00:47:56;;;;;;;4.78;2.20;;;19.10;99.90;;;;;;4987852;28;20674;-79
2023/08/25 00:50:21;;;;;;;9.27;2.55;;;19.10;99.90;;;;;;4969592;28;20068;-79
2023/08/25 00:52:47;;;;;;;4.15;2.38;;;19.00;99.90;;;;;;4982869;28;20342;-79
2023/08/25 00:55:12;;;;;;;4.07;1.80;;;19.10;99.90;;;;;;4994920;28;20030;-79
2023/08/25 00:57:38;;;;;;;5.22;2.30;;;19.10;99.90;;;;;;4982768;28;20033;-79
2023/08/25 01:00:06;;;;;;;5.53;2.33;;;19.20;99.90;;;;;;4984836;28;20034;-79
2023/08/25 01:02:31;;;;;;;5.28;2.70;;;19.20;99.90;;;;;;4987571;28;20477;-79
2023/08/25 01:04:57;;;;;;;4.57;2.35;;;19.00;99.90;;;;;;4983365;28;20034;-80
2023/08/25 01:07:24;;;;;;;6.53;2.20;;;19.00;99.90;;;;;;4981695;28;20044;-79
2023/08/25 01:09:49;;;;;;;3.20;2.35;;;19.00;99.90;;;;;;4967592;28;21057;-80
2023/08/25 01:12:40;;;;;;;5.35;2.90;;;19.00;99.90;;;;;;4981292;28;20030;-80
2023/08/25 01:15:12;;;;;;;4.53;2.60;;;18.80;99.90;;;;;;4976047;28;20057;-80
2023/08/25 01:18:00;;;;;;;5.65;2.65;;;18.80;99.90;;;;;;4985423;28;20025;-79
2023/08/25 01:20:25;;;;;;;7.35;2.60;;;18.70;99.90;;;;;;5003836;28;20121;-79
2023/08/25 01:23:17;;;;;;;3.53;2.63;;;18.70;99.90;;;;;;4988139;28;20552;-80
2023/08/25 01:25:43;;;;;;;6.68;3.38;;;18.70;99.90;;;;;;4992084;28;20030;-79
2023/08/25 01:28:09;;;;;;;3.00;2.50;;;18.50;99.90;;;;;;4996083;28;20025;-79
2023/08/25 01:30:35;;;;;;;8.48;3.00;;;18.50;99.90;;;;;;4987564;28;20034;-80
2023/08/25 01:33:01;;;;;;;7.50;2.72;;;18.60;99.90;;;;;;4990925;28;20030;-79
2023/08/25 01:36:01;;;;;;;4.35;2.60;;;18.50;99.90;;;;;;4989478;28;20067;-80
2023/08/25 01:38:54;;;;;;;6.10;2.75;;;18.50;99.90;;;;;;4921619;28;20114;-80
2023/08/25 01:41:28;;;;;;;3.50;2.05;;;18.50;99.90;;;;;;5006209;28;20273;-79
2023/08/25 01:43:53;;;;;;;5.30;2.75;;;18.60;99.90;;;;;;5005315;28;20128;-79
2023/08/25 01:46:19;;;;;;;4.65;2.83;;;18.60;99.90;;;;;;4974920;28;20145;-79
2023/08/25 01:48:46;;;;;;;6.10;2.65;;;18.60;99.90;;;;;;4984673;28;20041;-79
2023/08/25 01:51:13;;;;;;;3.72;2.65;;;18.50;99.90;;;;;;5000339;28;20029;-80
2023/08/25 01:53:38;;;;;;;4.65;2.63;;;18.40;99.90;;;;;;5005209;28;20025;-80
2023/08/25 01:56:06;;;;;;;4.32;3.17;;;18.40;99.90;;;;;;4976552;28;20025;-80
2023/08/25 01:58:31;;;;;;;4.35;3.13;;;18.30;99.90;;;;;;5008063;28;20076;-80
2023/08/25 02:00:57;;;;;;;5.43;3.20;;;18.10;99.90;;;;;;4979285;28;20037;-79
2023/08/25 02:03:23;;;;;;;5.05;3.50;;;18.10;99.90;;;;;;5005072;28;20040;-79
2023/08/25 02:05:48;;;;;;;7.75;3.33;;;18.20;99.90;;;;;;4990478;28;20041;-80
2023/08/25 02:08:15;;;;;;;5.32;3.05;;;18.10;99.90;;;;;;4969881;28;20069;-80
2023/08/25 02:10:40;;;;;;;7.68;3.08;;;18.10;99.90;;;;;;5008742;28;20088;-78
2023/08/25 02:13:06;;;;;;;4.63;3.33;;;18.20;99.90;;;;;;4989169;28;20034;-78
2023/08/25 02:15:31;;;;;;;4.30;3.00;;;18.20;99.90;;;;;;4982107;28;20385;-78
2023/08/25 02:17:57;;;;;;;5.40;3.25;;;18.20;99.90;;;;;;4980150;28;20049;-80
2023/08/25 02:20:23;;;;;;;8.73;3.20;;;18.20;99.90;;;;;;5001620;28;20038;-79
2023/08/25 02:22:48;;;;;;;7.05;3.55;;;18.20;99.90;;;;;;4985301;28;20042;-77
2023/08/25 02:25:14;;;;;;;6.57;3.63;;;18.10;99.90;;;;;;5005281;28;20042;-80
2023/08/25 02:27:39;;;;;;;6.50;3.20;;;18.20;99.90;;;;;;5006001;28;20034;-80
2023/08/25 02:30:06;;;;;;;6.43;3.67;;;18.20;99.90;;;;;;5002133;28;20489;-79
2023/08/25 02:32:31;;;;;;;4.68;2.90;;;18.10;99.90;;;;;;4984527;28;20504;-79
2023/08/25 02:34:57;;;;;;;6.40;3.30;;;18.10;99.90;;;;;;4999516;28;20037;-79
2023/08/25 02:37:22;;;;;;;5.80;3.55;;;18.10;99.90;;;;;;4998876;28;20458;-79
2023/08/25 02:39:48;;;;;;;8.57;3.38;;;18.00;99.90;;;;;;4972067;28;20034;-79
2023/08/25 02:42:13;;;;;;;8.23;3.20;;;18.00;99.90;;;;;;4992349;28;20038;-79
2023/08/25 02:44:39;;;;;;;6.07;2.90;;;18.00;99.90;;;;;;5000905;28;20389;-79
2023/08/25 02:47:05;;;;;;;4.82;2.80;;;18.00;99.90;;;;;;4989431;28;20390;-79
2023/08/25 02:49:30;;;;;;;5.50;3.13;;;17.80;99.90;;;;;;4982142;28;20538;-79
2023/08/25 02:51:56;;;;;;;3.47;2.80;;;17.70;99.90;;;;;;4971344;28;20030;-79
2023/08/25 02:54:23;;;;;;;6.70;3.95;;;17.70;99.90;;;;;;4988347;28;20116;-79
2023/08/25 02:56:48;;;;;;;4.32;3.03;;;17.60;99.90;;;;;;4986104;28;20033;-79
2023/08/25 02:59:14;;;;;;;4.07;3.40;;;17.60;99.90;;;;;;4984769;28;20103;-79
2023/08/25 03:01:39;;;;;;;5.75;3.65;;;17.60;99.90;;;;;;4984687;28;20057;-79
2023/08/25 03:04:05;;;;;;;4.22;3.83;;;17.70;99.90;;;;;;5001842;28;20529;-79
2023/08/25 03:06:30;;;;;;;7.25;3.88;;;17.70;99.90;;;;;;4982884;28;20565;-80
2023/08/25 03:08:56;;;;;;;5.13;3.03;;;17.80;99.90;;;;;;4984686;28;20049;-80
2023/08/25 03:11:21;;;;;;;4.88;3.95;;;17.80;99.90;;;;;;4997366;28;20112;-79
2023/08/25 03:13:47;;;;;;;4.82;3.05;;;17.80;99.90;;;;;;4980556;28;20033;-79
2023/08/25 03:16:12;;;;;;;7.15;4.00;;;17.70;99.90;;;;;;4970597;28;20028;-79
2023/08/25 03:18:40;;;;;;;7.78;3.97;;;17.70;99.90;;;;;;4999859;28;20029;-79
2023/08/25 03:21:05;;;;;;;6.75;3.58;;;17.70;99.90;;;;;;5018506;28;20092;-79
2023/08/25 03:23:31;;;;;;;8.02;3.80;;;17.70;99.90;;;;;;4988015;28;20021;-79
2023/08/25 03:25:57;;;;;;;14.60;4.40;;;17.70;99.90;;;;;;4982160;28;20018;-79
2023/08/25 03:28:23;;;;;;;9.93;4.00;;;17.80;99.90;;;;;;4981704;28;20562;-79
2023/08/25 03:30:51;;;;;;;4.03;3.60;;;17.60;99.90;;;;;;4985866;28;20017;-79
2023/08/25 03:33:17;;;;;;;7.53;3.40;;;17.70;99.90;;;;;;4970422;28;20121;-79
2023/08/25 03:35:42;;;;;;;6.75;4.18;;;17.70;99.90;;;;;;4983568;28;20038;-79
2023/08/25 03:38:08;;;;;;;6.22;3.92;;;17.80;99.90;;;;;;4977999;28;20394;-79
2023/08/25 03:40:34;;;;;;;6.35;4.53;;;17.70;99.90;;;;;;5003393;28;20749;-79
2023/08/25 03:42:59;;;;;;;4.97;3.83;;;17.60;99.90;;;;;;5002930;28;20320;-79
2023/08/25 03:45:25;;;;;;;8.82;4.85;;;17.60;99.90;;;;;;5002782;28;20113;-78
2023/08/25 03:47:51;;;;;;;6.15;4.60;;;17.60;99.90;;;;;;4984363;28;20060;-79
2023/08/25 03:50:17;;;;;;;12.77;5.60;;;17.60;99.90;;;;;;4986400;28;20493;-79
2023/08/25 03:52:43;;;;;;;7.10;5.20;;;17.50;99.90;;;;;;4985098;28;20041;-79
2023/08/25 03:55:08;;;;;;;5.93;3.83;;;17.60;99.90;;;;;;4968070;28;20501;-79
2023/08/25 03:57:34;;;;;;;5.97;3.65;;;17.60;99.90;;;;;;4976433;28;20111;-79
2023/08/25 04:00:00;;;;;;;6.60;4.10;;;17.50;99.90;;;;;;4988557;28;20052;-79
2023/08/25 04:02:25;;;;;;;10.32;5.47;;;17.50;99.90;;;;;;4984069;28;20505;-79
2023/08/25 04:04:51;;;;;;;11.30;6.30;;;17.50;99.90;;;;;;4983683;28;20107;-79
2023/08/25 04:07:16;;;;;;;8.65;5.03;;;17.50;99.90;;;;;;4984386;28;20087;-79
2023/08/25 04:09:42;;;;;;;6.80;4.18;;;17.50;99.90;;;;;;4979130;28;20162;-79
2023/08/25 04:12:08;;;;;;;7.50;5.43;;;17.50;99.90;;;;;;4999674;28;20398;-79
2023/08/25 04:14:34;;;;;;;9.38;6.20;;;17.30;99.90;;;;;;4971429;28;20098;-79
2023/08/25 04:16:59;;;;;;;11.60;6.70;;;17.30;99.90;;;;;;4980021;28;20030;-79
2023/08/25 04:19:25;;;;;;;9.77;5.90;;;17.40;99.90;;;;;;4983406;28;20045;-79
2023/08/25 04:21:51;;;;;;;13.75;7.10;;;17.30;99.90;;;;;;4970265;28;20040;-79
2023/08/25 04:24:17;;;;;;;10.15;7.47;;;17.30;99.90;;;;;;4983201;28;20131;-79
2023/08/25 04:26:42;;;;;;;15.55;5.65;;;17.30;99.90;;;;;;4970691;28;20072;-79
2023/08/25 04:29:09;;;;;;;10.18;7.28;;;17.30;99.90;;;;;;4997142;28;20481;-79
2023/08/25 04:31:35;;;;;;;7.35;6.38;;;17.30;99.90;;;;;;4984993;28;20382;-79
2023/08/25 04:34:01;;;;;;;13.20;7.40;;;17.20;99.90;;;;;;4964527;28;20398;-78
2023/08/25 04:36:26;;;;;;;14.50;7.82;;;17.20;99.90;;;;;;4999521;28;20029;-79
2023/08/25 04:38:52;;;;;;;17.45;8.07;;;17.20;99.90;;;;;;4984723;28;20489;-79
2023/08/25 04:41:19;;;;;;;14.32;9.25;;;17.20;99.90;;;;;;4995828;28;20049;-79
2023/08/25 04:43:44;;;;;;;14.05;8.48;;;17.20;99.90;;;;;;4970685;28;20037;-80
2023/08/25 04:46:10;;;;;;;13.18;8.98;;;17.20;99.90;;;;;;4984543;28;20029;-79
2023/08/25 04:48:36;;;;;;;14.43;8.52;;;17.10;99.90;;;;;;4982397;28;20029;-79
2023/08/25 04:51:02;;;;;;;13.80;9.27;;;17.10;99.90;;;;;;4979752;28;20531;-79
2023/08/25 04:53:27;;;;;;;13.43;9.25;;;17.20;99.90;;;;;;4984038;28;20026;-80
2023/08/25 04:55:53;;;;;;;11.00;9.40;;;17.20;99.90;;;;;;4999531;28;20041;-79
2023/08/25 04:58:18;;;;;;;13.45;9.00;;;17.20;99.90;;;;;;5000295;28;20045;-79
2023/08/25 05:00:47;;;;;;;15.88;9.02;;;17.20;99.90;;;;;;4993359;28;20033;-78
2023/08/25 05:03:12;;;;;;;10.85;8.25;;;17.20;99.90;;;;;;4981208;28;20033;-78
2023/08/25 05:05:38;;;;;;;9.88;7.78;;;17.20;99.90;;;;;;4978271;28;20423;-78
2023/08/25 05:08:04;;;;;;;12.90;8.38;;;17.20;99.90;;;;;;4999449;28;20034;-79
2023/08/25 05:10:30;;;;;;;12.90;8.77;;;17.30;99.90;;;;;;4985339;28;20025;-79
2023/08/25 05:12:55;;;;;;;7.05;5.60;;;17.30;99.90;;;;;;4966462;28;20076;-79
2023/08/25 05:15:21;;;;;;;12.88;7.65;;;17.30;99.90;;;;;;4976367;28;20069;-79
2023/08/25 05:17:47;;;;;;;10.93;6.88;;;17.40;99.90;;;;;;4963749;28;20030;-79
2023/08/25 05:20:12;;;;;;;7.30;4.97;;;17.30;99.90;;;;;;4984103;28;20083;-79
2023/08/25 05:22:38;;;;;;;9.32;5.18;;;17.40;99.90;;;;;;4969385;28;20691;-79
2023/08/25 05:25:04;;;;;;;16.95;7.90;;;17.50;99.90;;;;;;4998152;28;20099;-79
2023/08/25 05:27:29;;;;;;;8.75;7.85;;;17.50;99.90;;;;;;4968228;28;20268;-78
2023/08/25 05:29:55;;;;;;;9.05;6.68;;;17.50;99.90;;;;;;4983613;28;20025;-79
2023/08/25 05:32:20;;;;;;;13.57;8.50;;;17.50;99.90;;;;;;5000964;28;20026;-79
2023/08/25 05:34:46;;;;;;;9.50;5.47;;;17.50;99.90;;;;;;4994844;28;20281;-79
2023/08/25 05:37:11;;;;;;;13.35;7.90;;;17.50;99.90;;;;;;4982618;28;20457;-79
2023/08/25 05:39:37;;;;;;;14.57;9.15;;;17.70;99.90;;;;;;4978906;28;20430;-79
2023/08/25 05:42:05;;;;;;;5.43;3.85;;;17.70;99.90;;;;;;4966056;28;20091;-79
2023/08/25 05:44:31;;;;;;;14.90;7.90;;;17.80;99.90;;;;;;4984494;28;20068;-79
2023/08/25 05:46:57;;;;;;;11.43;6.93;;;17.80;99.90;;;;;;4992683;28;20354;-79
2023/08/25 05:49:22;;;;;;;13.25;8.63;;;17.80;99.90;;;;;;4983409;28;20030;-79
2023/08/25 05:51:49;;;;;;;15.50;10.43;;;17.80;99.90;;;;;;4984287;28;20465;-79
2023/08/25 05:54:15;;;;;;;14.48;9.68;;;17.90;99.90;;;;;;4994511;28;20531;-78
2023/08/25 05:56:40;;;;;;;13.57;9.82;;;18.00;99.90;;;;;;4999321;28;20030;-79
2023/08/25 05:59:06;;;;;;;10.50;8.70;;;18.00;99.90;;;;;;4998843;28;20038;-78
2023/08/25 06:01:31;;;;;;;11.48;8.75;;;18.10;99.90;;;;;;4984274;28;20052;-79
2023/08/25 06:03:57;;;;;;;10.30;6.85;;;18.10;99.90;;;;;;4965800;28;20121;-78
2023/08/25 06:06:23;;;;;;;9.98;8.02;;;18.30;99.90;;;;;;4966860;28;20452;-78
2023/08/25 06:08:49;;;;;;;15.93;9.35;;;18.40;99.90;;;;;;5003006;28;20022;-78
2023/08/25 06:11:14;;;;;;;11.35;8.73;;;18.40;99.90;;;;;;4998828;28;20060;-78
2023/08/25 06:13:40;;;;;;;10.60;8.77;;;18.50;99.90;;;;;;4985556;28;20477;-78
2023/08/25 06:16:06;;;;;;;16.17;7.32;;;18.60;99.90;;;;;;5015034;28;20033;-80
2023/08/25 06:18:32;;;;;;;9.38;7.07;;;18.70;99.90;;;;;;4971486;28;20030;-80
2023/08/25 06:20:57;;;;;;;12.55;6.18;;;18.80;99.90;;;;;;4982962;28;20036;-79
2023/08/25 06:23:23;;;;;;;8.02;6.35;;;18.90;99.90;;;;;;5001247;28;20378;-80
2023/08/25 06:25:49;;;;;;;8.15;5.93;;;19.10;99.90;;;;;;4972037;28;20777;-79
2023/08/25 06:28:15;;;;;;;8.90;5.43;;;19.10;99.90;;;;;;4969373;28;20112;-79
2023/08/25 06:30:41;;;;;;;7.57;5.50;;;19.30;99.90;;;;;;4985341;28;20140;-79
2023/08/25 06:33:08;;;;;;;10.82;5.40;;;19.40;99.90;;;;;;4986225;28;20080;-79
2023/08/25 06:35:34;;;;;;;8.38;5.53;;;19.50;99.90;;;;;;4972626;28;20813;-79
2023/08/25 06:38:00;;;;;;;5.93;4.43;;;19.60;99.90;;;;;;4985026;28;20045;-80
2023/08/25 06:40:25;;;;;;;4.55;3.95;;;19.70;99.90;;;;;;4983023;28;20037;-80
2023/08/25 06:42:51;;;;;;;8.32;4.43;;;19.80;99.90;;;;;;4995228;28;20084;-79
2023/08/25 06:45:16;;;;;;;5.90;4.10;;;20.10;99.90;;;;;;4970304;28;20034;-79
2023/08/25 06:47:44;;;;;;;6.65;3.85;;;20.10;99.90;;;;;;4984106;28;20363;-79
2023/08/25 06:50:10;;;;;;;4.80;3.92;;;20.10;99.90;;;;;;5004722;28;20054;-79
2023/08/25 06:52:36;;;;;;;6.40;3.53;;;20.10;99.90;;;;;;4987932;28;20168;-79
2023/08/25 06:55:04;;;;;;;17.85;5.55;;;20.40;99.90;;;;;;4997763;28;20072;-79
2023/08/25 06:57:31;;;;;;;4.72;3.13;;;20.50;99.90;;;;;;4984175;28;20041;-79
2023/08/25 06:59:56;;;;;;;8.38;4.13;;;20.60;99.90;;;;;;4984620;28;20100;-79
2023/08/25 07:02:22;;;;;;;6.75;3.45;;;20.90;99.90;;;;;;5001349;28;20041;-79
2023/08/25 07:04:48;;;;;;;4.22;2.75;;;21.00;99.90;;;;;;4987716;28;20026;-79
2023/08/25 07:07:13;;;;;;;2.97;2.50;;;21.10;99.90;;;;;;4984158;28;20445;-79
2023/08/25 07:09:39;;;;;;;3.70;3.13;;;21.20;99.90;;;;;;4972602;28;20029;-79
2023/08/25 07:12:05;;;;;;;8.75;4.05;;;21.30;99.90;;;;;;4983987;28;20516;-81
2023/08/25 07:14:31;;;;;;;5.75;2.78;;;21.30;99.90;;;;;;4987566;28;20485;-79
2023/08/25 07:16:57;;;;;;;3.72;3.35;;;21.40;99.90;;;;;;4967715;28;20069;-80
2023/08/25 07:19:23;;;;;;;5.85;3.20;;;21.30;99.90;;;;;;4994564;28;20041;-80
2023/08/25 07:21:48;;;;;;;4.68;2.50;;;21.30;99.90;;;;;;4967634;28;20481;-80
2023/08/25 07:24:15;;;;;;;7.95;3.90;;;21.20;99.90;;;;;;4971920;28;20410;-80
2023/08/25 07:26:40;;;;;;;5.05;3.55;;;21.20;99.90;;;;;;4987802;28;20029;-80
2023/08/25 07:29:06;;;;;;;6.55;2.72;;;21.20;99.90;;;;;;4969355;28;20409;-80
2023/08/25 07:31:33;;;;;;;7.85;3.10;;;21.20;99.90;;;;;;4969654;28;20433;-81
2023/08/25 07:33:58;;;;;;;6.57;2.33;;;21.10;99.90;;;;;;4984019;28;20029;-80
2023/08/25 07:36:24;;;;;;;8.98;3.88;;;21.10;99.90;;;;;;4990891;28;20029;-81
2023/08/25 07:38:51;;;;;;;5.53;2.65;;;21.00;99.90;;;;;;4987881;28;20029;-82
2023/08/25 07:41:20;;;;;;;3.83;2.17;;;20.90;99.90;;;;;;4982439;28;20026;-81
2023/08/25 07:43:46;;;;;;;3.38;2.30;;;20.90;99.90;;;;;;4988397;28;20045;-82
2023/08/25 07:46:13;;;;;;;5.45;2.50;;;20.70;99.90;;;;;;4989108;28;20841;-83
2023/08/25 07:48:38;;;;;;;5.65;3.13;;;20.60;99.90;;;;;;4969749;28;20447;-85
2023/08/25 07:51:04;;;;;;;5.78;3.47;;;20.40;99.90;;;;;;4969794;28;20022;-84
2023/08/25 07:53:31;;;;;;;7.70;4.45;;;20.30;99.90;;;;;;4973841;28;20083;-84
2023/08/25 07:55:57;;;;;;;6.40;3.90;;;20.10;99.90;;;;;;4971989;28;20040;-83
2023/08/25 07:58:22;;;;;;;6.38;3.35;;;20.00;99.90;;;;;;4985677;28;20045;-84
2023/08/25 08:00:49;;;;;;;7.38;4.05;;;20.00;99.90;;;;;;4985112;28;20025;-82
2023/08/25 08:03:15;;;;;;;5.22;3.28;;;20.00;99.90;;;;;;4987570;28;20045;-82
2023/08/25 08:05:41;;;;;;;7.95;4.63;;;20.00;99.90;;;;;;4963279;28;20054;-83
2023/08/25 08:08:09;;;;;;;7.10;4.80;;;19.90;99.90;;;;;;4983452;28;20029;-83
2023/08/25 08:10:35;;;;;;;6.53;4.32;;;19.90;99.90;;;;;;5001023;28;20026;-83
2023/08/25 08:13:02;;;;;;;7.68;4.95;;;19.80;99.90;;;;;;4966640;28;20033;-83
2023/08/25 08:15:27;;;;;;;6.30;4.35;;;19.80;99.90;;;;;;4969029;28;20041;-82
2023/08/25 08:17:53;;;;;;;6.82;4.25;;;19.60;99.90;;;;;;4981938;28;20079;-85
2023/08/25 08:20:19;;;;;;;15.35;5.85;;;19.60;99.90;;;;;;4985768;28;20521;-86
2023/08/25 08:22:44;;;;;;;12.15;6.68;;;19.50;99.90;;;;;;4981821;28;20056;-83
2023/08/25 08:25:10;;;;;;;12.38;6.15;;;19.50;99.90;;;;;;4998957;28;20053;-83
2023/08/25 08:27:37;;;;;;;6.00;5.40;;;19.50;99.90;;;;;;4967429;28;20037;-83
2023/08/25 08:30:03;;;;;;;8.73;5.05;;;19.50;99.90;;;;;;5001529;28;20034;-83
2023/08/25 08:32:28;;;;;;;9.68;6.18;;;19.40;99.90;;;;;;4986968;28;20119;-83
2023/08/25 08:34:54;;;;;;;6.68;5.15;;;19.30;99.90;;;;;;4986705;28;20395;-84
2023/08/25 08:37:19;;;;;;;7.30;4.65;;;19.20;99.90;;;;;;4988360;28;20061;-84
2023/08/25 08:39:45;;;;;;;7.78;4.10;;;19.30;99.90;;;;;;4987405;28;20489;-82
2023/08/25 08:42:12;;;;;;;6.38;4.10;;;19.20;99.90;;;;;;4974741;28;20042;-83
2023/08/25 08:44:38;;;;;;;7.65;5.30;;;19.30;99.90;;;;;;4966444;28;20091;-83
2023/08/25 08:47:04;;;;;;;7.55;3.92;;;19.30;99.90;;;;;;4967864;28;20029;-84
2023/08/25 08:49:36;;;;;;;8.20;4.22;;;19.30;99.90;;;;;;4987013;28;20026;-83
2023/08/25 08:52:03;;;;;;;7.15;3.65;;;19.30;99.90;;;;;;4983183;28;20091;-81
2023/08/25 08:54:30;;;;;;;5.43;3.42;;;19.20;99.90;;;;;;4980987;28;20764;-82
2023/08/25 08:56:56;;;;;;;9.15;3.72;;;19.20;99.90;;;;;;4968610;28;20161;-82
2023/08/25 08:59:22;;;;;;;6.95;4.15;;;19.30;99.90;;;;;;5001299;28;20041;-82
2023/08/25 09:01:51;;;;;;;5.85;3.30;;;19.20;99.90;;;;;;4986212;28;20033;-82
2023/08/25 09:04:19;;;;;;;4.80;4.15;;;19.20;99.90;;;;;;4984256;28;20034;-82
2023/08/25 09:06:45;;;;;;;8.18;4.70;;;19.30;99.90;;;;;;4980917;28;20089;-82
2023/08/25 09:09:10;;;;;;;7.60;4.50;;;19.30;99.90;;;;;;4985597;28;20061;-82
2023/08/25 09:11:36;;;;;;;5.13;3.67;;;19.30;99.90;;;;;;4986712;28;20053;-82
2023/08/25 09:14:05;;;;;;;4.32;3.20;;;19.30;99.90;;;;;;4984521;28;20029;-82
2023/08/25 09:16:35;;;;;;;5.60;3.20;;;19.30;99.90;;;;;;4988611;28;20105;-82
2023/08/25 09:19:03;;;;;;;5.88;4.25;;;19.40;99.90;;;;;;4987451;28;20041;-81
2023/08/25 09:21:29;;;;;;;7.45;4.72;;;19.30;99.90;;;;;;4985845;28;20029;-82
2023/08/25 09:23:56;;;;;;;7.95;4.35;;;19.40;99.90;;;;;;4986576;28;20512;-82
2023/08/25 09:26:22;;;;;;;13.52;6.72;;;19.50;99.90;;;;;;4974321;28;20502;-82
2023/08/25 09:28:47;;;;;;;7.95;4.82;;;19.40;99.90;;;;;;4983946;28;20045;-82
2023/08/25 09:31:26;;;;;;;7.68;6.93;;;19.50;99.90;;;;;;4976599;28;20119;-82
2023/08/25 09:34:01;;;;;;;6.40;4.10;;;19.60;99.90;;;;;;4978968;28;20045;-81
2023/08/25 09:36:28;;;;;;;5.93;3.63;;;19.60;99.90;;;;;;4985969;28;20052;-82
2023/08/25 09:38:54;;;;;;;5.10;4.38;;;19.60;99.90;;;;;;4990619;28;20037;-82
2023/08/25 09:41:22;;;;;;;14.57;5.53;;;19.60;99.90;;;;;;4983196;28;20029;-82
2023/08/25 09:43:50;;;;;;;7.57;5.28;;;19.60;99.90;;;;;;4990719;28;20481;-82
2023/08/25 09:46:16;;;;;;;4.38;3.83;;;19.40;99.90;;;;;;4986097;28;20034;-82
2023/08/25 09:48:44;;;;;;;9.85;5.57;;;19.50;99.90;;;;;;4975346;28;20021;-82
2023/08/25 09:51:10;;;;;;;9.80;7.18;;;19.60;99.90;;;;;;4988632;28;22371;-82
2023/08/25 09:53:36;;;;;;;6.15;3.67;;;19.60;99.90;;;;;;4968260;28;20040;-82
2023/08/25 09:56:05;;;;;;;8.52;5.53;;;19.70;99.90;;;;;;5001955;28;20041;-82
2023/08/25 09:58:30;;;;;;;4.10;3.70;;;19.70;99.90;;;;;;4973903;28;20034;-82
2023/08/25 10:00:56;;;;;;;5.00;3.72;;;19.70;99.90;;;;;;4981229;28;20821;-83
2023/08/25 10:03:21;;;;;;;8.45;5.30;;;19.60;99.90;;;;;;4974921;28;20029;-82
2023/08/25 10:05:47;;;;;;;6.90;4.53;;;19.60;99.90;;;;;;4988612;28;20029;-82
2023/08/25 10:08:14;;;;;;;5.30;3.13;;;19.60;99.90;;;;;;5004772;28;20064;-82
2023/08/25 10:10:40;;;;;;;67.43;6.53;;;19.60;99.90;;;;;;4986687;28;20465;-82
2023/08/25 10:13:07;;;;;;;7.85;4.07;;;19.30;99.90;;;;;;5005469;28;20417;-84
2023/08/25 10:15:33;;;;;;;11.38;4.95;;;19.00;99.90;;;;;;4989769;28;20044;-83
2023/08/25 10:18:02;;;;;;;7.53;4.18;;;18.70;99.90;;;;;;4983214;28;20033;-84
2023/08/25 10:20:30;;;;;;;8.27;3.70;;;18.60;99.90;;;;;;4987998;28;20037;-84
2023/08/25 10:22:56;;;;;;;8.60;3.63;;;18.50;99.90;;;;;;4990469;28;20116;-83
2023/08/25 10:25:22;;;;;;;8.80;4.25;;;18.50;99.90;;;;;;4989374;28;20540;-84
2023/08/25 10:27:48;;;;;;;11.75;4.03;;;18.70;99.90;;;;;;4988739;28;20033;-86
2023/08/25 10:30:14;;;;;;;8.93;4.15;;;18.80;99.90;;;;;;4989806;28;20038;-84
2023/08/25 10:32:58;;;;;;;4.05;3.22;;;18.80;99.90;;;;;;5001522;28;20034;-84
2023/08/25 10:35:46;;;;;;;4.97;2.88;;;19.00;99.90;;;;;;4989372;28;20037;-84
2023/08/25 10:38:29;;;;;;;4.53;2.55;;;19.10;99.90;;;;;;4986370;28;20468;-85
2023/08/25 10:40:56;;;;;;;5.80;3.00;;;19.10;99.90;;;;;;5017648;28;20029;-84
2023/08/25 10:43:31;;;;;;;7.30;2.95;;;19.10;99.90;;;;;;4982282;28;20041;-84
2023/08/25 10:45:56;;;;;;;5.88;2.28;;;19.20;99.90;;;;;;4972244;28;20040;-85
2023/08/25 10:48:25;;;;;;;4.35;2.90;;;19.10;99.90;;;;;;4987151;28;20033;-84
2023/08/25 10:51:06;;;;;;;7.07;2.72;;;19.10;99.90;;;;;;4984015;28;20064;-84
2023/08/25 10:53:38;;;;;;;4.03;2.25;;;19.00;99.90;;;;;;4971979;28;20057;-84
2023/08/25 10:56:16;;;;;;;3.95;2.55;;;19.00;99.90;;;;;;4972719;28;20573;-84
2023/08/25 10:58:41;;;;;;;4.60;2.67;;;19.00;99.90;;;;;;5004192;28;20537;-84
2023/08/25 11:01:07;;;;;;;6.15;3.15;;;19.00;99.90;;;;;;5006820;28;20030;-84
2023/08/25 11:04:01;;;;;;;3.85;2.35;;;19.00;99.90;;;;;;4973947;28;20042;-84
2023/08/25 11:06:42;;;;;;;4.75;2.45;;;19.00;99.90;;;;;;4981810;28;20040;-83
2023/08/25 11:09:09;;;;;;;4.97;2.20;;;18.90;99.90;;;;;;5007341;28;20595;-84
2023/08/25 11:11:38;;;;;;;5.57;2.17;;;18.90;99.90;;;;;;4975416;28;20521;-83
2023/08/25 11:14:04;;;;;;;3.78;2.55;;;18.80;99.90;;;;;;4988850;28;20087;-83
2023/08/25 11:16:30;;;;;;;6.90;2.15;;;18.80;99.90;;;;;;4975354;28;20375;-84
2023/08/25 11:18:55;;;;;;;3.92;2.60;;;18.80;99.90;;;;;;4986137;28;20033;-84
2023/08/25 11:21:27;;;;;;;6.50;2.70;;;18.80;99.90;;;;;;4984778;28;20115;-84
2023/08/25 11:23:53;;;;;;;3.70;2.20;;;18.70;99.90;;;;;;5005900;28;22079;-85
2023/08/25 11:26:19;;;;;;;5.78;2.22;;;18.80;99.90;;;;;;4966662;28;20088;-84
2023/08/25 11:28:49;;;;;;;2.67;2.17;;;18.80;99.90;;;;;;4988131;28;20034;-84
2023/08/25 11:31:14;;;;;;;2.08;1.90;;;18.80;99.90;;;;;;4974015;28;20037;-84
2023/08/25 11:33:40;;;;;;;3.45;2.63;;;18.90;99.90;;;;;;4986431;28;20548;-84
2023/08/25 11:36:06;;;;;;;4.05;2.38;;;19.00;99.90;;;;;;5002844;28;20042;-83
2023/08/25 11:38:31;;;;;;;3.58;2.83;;;19.10;99.90;;;;;;4961095;28;20045;-83
2023/08/25 11:40:59;;;;;;;4.45;2.70;;;19.00;99.90;;;;;;4984658;28;20026;-83
2023/08/25 11:43:36;;;;;;;4.10;2.13;;;19.20;99.90;;;;;;4969962;28;20068;-83
2023/08/25 11:46:04;;;;;;;3.38;1.90;;;19.20;99.90;;;;;;4987964;28;20585;-84
2023/08/25 11:48:32;;;;;;;3.28;2.08;;;19.30;99.90;;;;;;4959527;28;20573;-86
2023/08/25 11:50:57;;;;;;;2.78;2.10;;;19.30;99.90;;;;;;4992889;28;20034;-83
2023/08/25 11:53:23;;;;;;;2.78;2.40;;;19.40;99.90;;;;;;5015155;28;20049;-82
2023/08/25 11:56:02;;;;;;;2.95;2.28;;;19.40;99.90;;;;;;4984536;28;20164;-84
2023/08/25 11:58:35;;;;;;;4.47;2.53;;;19.50;99.90;;;;;;4987949;28;20042;-84
2023/08/25 12:01:08;;;;;;;4.95;2.50;;;19.50;99.90;;;;;;4640304;28;10000519;-84
2023/08/25 12:03:34;;;;;;;3.83;2.40;;;19.50;99.90;;;;;;4990298;28;20089;-85
2023/08/25 12:06:04;;;;;;;3.75;2.80;;;19.50;99.90;;;;;;4998400;28;20037;-85
2023/08/25 12:08:30;;;;;;;3.13;2.00;;;19.60;99.90;;;;;;4983942;28;20034;-83
2023/08/25 12:10:57;;;;;;;4.03;2.20;;;19.80;99.90;;;;;;4999827;28;20390;-83
2023/08/25 12:13:27;;;;;;;2.38;2.03;;;19.90;99.90;;;;;;4987013;28;20033;-83
2023/08/25 12:15:53;;;;;;;2.83;1.85;;;20.10;99.90;;;;;;4968751;28;20117;-82
2023/08/25 12:18:20;;;;;;;5.45;2.03;;;20.10;99.90;;;;;;4986201;28;21114;-83
2023/08/25 12:20:46;;;;;;;4.88;2.47;;;20.00;99.90;;;;;;4970564;28;20564;-83
2023/08/25 12:23:12;;;;;;;2.92;2.03;;;20.10;99.90;;;;;;4985846;28;20033;-83
2023/08/25 12:25:42;;;;;;;2.47;2.17;;;20.20;99.90;;;;;;4984307;28;20057;-83
2023/08/25 12:28:07;;;;;;;2.15;1.95;;;20.30;99.90;;;;;;4984607;28;20076;-83
2023/08/25 12:30:33;;;;;;;6.10;2.33;;;20.50;99.90;;;;;;5002445;28;20033;-82
2023/08/25 12:32:58;;;;;;;3.58;1.98;;;20.50;99.90;;;;;;4985609;28;20034;-83
2023/08/25 12:35:24;;;;;;;3.92;2.13;;;20.70;99.90;;;;;;4987474;28;20034;-83
2023/08/25 12:37:50;;;;;;;4.68;2.60;;;20.90;99.90;;;;;;4985290;28;20025;-83
2023/08/25 12:40:20;;;;;;;4.47;1.98;;;21.10;99.90;;;;;;4987933;28;20048;-82
2023/08/25 12:42:47;;;;;;;3.05;1.73;;;21.30;99.90;;;;;;4997929;28;20460;-83
2023/08/25 12:45:15;;;;;;;2.58;2.15;;;21.20;99.90;;;;;;4983262;28;20456;-83